createdAt,value
2022-09-17T00:00:50.052Z,10.30
2022-09-17T00:03:17.342Z,10.20
2022-09-17T00:05:44.938Z,10.30
2022-09-17T00:08:14.978Z,10.30
2022-09-17T00:10:43.439Z,10.30
2022-09-17T00:13:10.698Z,10.30
2022-09-17T00:15:42.486Z,10.30
2022-09-17T00:18:09.708Z,10.30
2022-09-17T00:20:45.254Z,10.20
2022-09-17T00:23:13.941Z,10.20
2022-09-17T00:25:42.958Z,10.20
2022-09-17T00:28:10.598Z,10.20
2022-09-17T00:30:40.870Z,10.20
2022-09-17T00:33:08.059Z,10.20
2022-09-17T00:35:34.926Z,10.20
2022-09-17T00:38:01.573Z,10.20
2022-09-17T00:40:28.248Z,10.20
2022-09-17T00:42:55.064Z,10.10
2022-09-17T00:45:22.893Z,10.10
2022-09-17T00:47:58.683Z,10.10
2022-09-17T00:50:33.996Z,10.10
2022-09-17T00:53:07.084Z,10.00
2022-09-17T00:55:38.797Z,10.00
2022-09-17T00:58:09.397Z,10.00
2022-09-17T01:00:37.086Z,10.00
2022-09-17T01:03:04.224Z,10.00
2022-09-17T01:05:46.091Z,10.00
2022-09-17T01:08:45.730Z,9.90
2022-09-17T01:11:21.565Z,9.90
2022-09-17T01:14:06.424Z,9.90
2022-09-17T01:16:56.026Z,9.90
2022-09-17T01:19:35.031Z,10.00
2022-09-17T01:22:18.727Z,10.00
2022-09-17T01:24:48.678Z,10.00
2022-09-17T01:27:44.979Z,10.00
2022-09-17T01:30:33.699Z,10.10
2022-09-17T01:33:14.822Z,10.10
2022-09-17T01:35:52.563Z,10.00
2022-09-17T01:38:25.495Z,10.00
2022-09-17T01:41:06.723Z,9.90
2022-09-17T01:44:06.235Z,10.00
2022-09-17T01:46:39.222Z,9.90
2022-09-17T01:49:07.452Z,9.90
2022-09-17T01:51:40.803Z,9.90
2022-09-17T01:54:20.036Z,9.90
2022-09-17T01:56:56.395Z,9.90
2022-09-17T01:59:35.382Z,10.00
2022-09-17T02:02:16.482Z,10.00
2022-09-17T02:04:57.184Z,10.00
2022-09-17T02:07:25.896Z,10.00
2022-09-17T02:10:08.246Z,10.00
2022-09-17T02:12:44.550Z,10.00
2022-09-17T02:15:19.857Z,9.90
2022-09-17T02:17:51.360Z,10.00
2022-09-17T02:20:23.453Z,9.90
2022-09-17T02:22:57.812Z,10.00
2022-09-17T02:25:52.715Z,9.90
2022-09-17T02:28:30.737Z,9.90
2022-09-17T02:30:57.511Z,9.90
2022-09-17T02:33:26.329Z,9.90
2022-09-17T02:35:53.269Z,9.90
2022-09-17T02:38:27.183Z,9.90
2022-09-17T02:41:11.439Z,9.90
2022-09-17T02:44:12.943Z,9.90
2022-09-17T02:47:26.943Z,9.90
2022-09-17T02:50:06.931Z,9.90
2022-09-17T02:53:10.976Z,9.90
2022-09-17T02:55:45.207Z,9.90
2022-09-17T02:58:24.783Z,9.90
2022-09-17T03:00:52.319Z,9.80
2022-09-17T03:03:35.592Z,9.80
2022-09-17T03:06:02.772Z,9.80
2022-09-17T03:08:33.056Z,9.80
2022-09-17T03:10:59.780Z,9.70
2022-09-17T03:13:26.476Z,9.70
2022-09-17T03:15:53.177Z,9.60
2022-09-17T03:18:19.899Z,9.60
2022-09-17T03:20:46.862Z,9.60
2022-09-17T03:23:13.630Z,9.50
2022-09-17T03:25:40.435Z,9.50
2022-09-17T03:28:07.179Z,9.40
2022-09-17T03:30:33.861Z,9.30
2022-09-17T03:33:00.483Z,9.30
2022-09-17T03:35:27.266Z,9.40
2022-09-17T03:37:53.928Z,9.40
2022-09-17T03:40:20.597Z,9.40
2022-09-17T03:42:47.300Z,9.40
2022-09-17T03:45:13.947Z,9.40
2022-09-17T03:47:40.576Z,9.40
2022-09-17T03:50:07.739Z,9.40
2022-09-17T03:52:34.476Z,9.40
2022-09-17T03:55:01.242Z,9.40
2022-09-17T03:57:27.936Z,9.40
2022-09-17T03:59:54.624Z,9.40
2022-09-17T04:02:21.475Z,9.40
2022-09-17T04:04:48.205Z,9.40
2022-09-17T04:07:14.906Z,9.30
2022-09-17T04:09:41.613Z,9.30
2022-09-17T04:12:08.308Z,9.40
2022-09-17T04:14:34.891Z,9.40
2022-09-17T04:17:01.674Z,9.30
2022-09-17T04:19:28.452Z,9.30
2022-09-17T04:21:55.055Z,9.40
2022-09-17T04:24:21.809Z,9.40
2022-09-17T04:26:48.435Z,9.40
2022-09-17T04:29:15.158Z,9.30
2022-09-17T04:31:42.020Z,9.30
2022-09-17T04:34:08.708Z,9.30
2022-09-17T04:36:35.408Z,9.30
2022-09-17T04:39:02.083Z,9.30
2022-09-17T04:41:28.767Z,9.30
2022-09-17T04:43:55.353Z,9.30
2022-09-17T04:46:22.218Z,9.40
2022-09-17T04:48:48.854Z,9.30
2022-09-17T04:51:15.516Z,9.40
2022-09-17T04:53:42.134Z,9.40
2022-09-17T04:56:08.779Z,9.40
2022-09-17T04:58:35.542Z,9.40
2022-09-17T05:01:02.242Z,9.40
2022-09-17T05:03:29.006Z,9.40
2022-09-17T05:05:55.914Z,9.40
2022-09-17T05:08:23.946Z,9.40
2022-09-17T05:10:51.517Z,9.40
2022-09-17T05:13:18.870Z,9.40
2022-09-17T05:15:45.769Z,9.40
2022-09-17T05:18:12.541Z,9.40
2022-09-17T05:20:39.311Z,9.40
2022-09-17T05:23:05.921Z,9.40
2022-09-17T05:25:32.573Z,9.50
2022-09-17T05:28:01.352Z,9.50
2022-09-17T05:30:28.084Z,9.40
2022-09-17T05:33:07.024Z,9.50
2022-09-17T05:35:36.548Z,9.40
2022-09-17T05:38:05.536Z,9.50
2022-09-17T05:40:35.089Z,9.50
2022-09-17T05:43:04.099Z,9.50
2022-09-17T05:45:30.772Z,9.50
2022-09-17T05:47:58.935Z,9.50
2022-09-17T05:50:26.769Z,9.60
2022-09-17T05:52:54.153Z,9.60
2022-09-17T05:55:22.400Z,9.60
2022-09-17T05:57:49.898Z,9.60
2022-09-17T06:00:17.009Z,9.60
2022-09-17T06:02:43.865Z,9.60
2022-09-17T06:05:10.588Z,9.70
2022-09-17T06:07:38.702Z,9.80
2022-09-17T06:10:08.208Z,9.90
2022-09-17T06:12:37.905Z,10.10
2022-09-17T06:15:05.241Z,10.10
2022-09-17T06:17:35.896Z,10.20
2022-09-17T06:20:04.573Z,10.40
2022-09-17T06:22:31.291Z,10.50
2022-09-17T06:24:59.652Z,10.50
2022-09-17T06:27:31.912Z,10.70
2022-09-17T06:29:59.637Z,10.70
2022-09-17T06:32:26.580Z,10.70
2022-09-17T06:34:54.022Z,10.60
2022-09-17T06:37:20.618Z,10.60
2022-09-17T06:39:47.615Z,10.60
2022-09-17T06:42:14.255Z,10.60
2022-09-17T06:44:41.006Z,10.50
2022-09-17T06:47:07.999Z,10.60
2022-09-17T06:49:34.725Z,10.50
2022-09-17T06:52:01.736Z,10.50
2022-09-17T06:54:28.412Z,10.40
2022-09-17T06:56:55.049Z,10.40
2022-09-17T06:59:21.658Z,10.40
2022-09-17T07:01:48.502Z,10.40
2022-09-17T07:04:17.416Z,10.40
2022-09-17T07:06:44.837Z,10.40
2022-09-17T07:09:12.106Z,10.40
2022-09-17T07:11:41.806Z,10.50
2022-09-17T07:14:08.678Z,10.50
2022-09-17T07:16:36.746Z,10.50
2022-09-17T07:19:04.165Z,10.40
2022-09-17T07:21:31.433Z,10.30
2022-09-17T07:23:58.638Z,10.30
2022-09-17T07:26:25.303Z,10.40
2022-09-17T07:28:51.937Z,10.50
2022-09-17T07:31:18.706Z,10.50
2022-09-17T07:33:45.656Z,10.50
2022-09-17T07:36:14.984Z,10.50
2022-09-17T07:38:41.919Z,10.50
2022-09-17T07:41:14.083Z,10.50
2022-09-17T07:43:41.414Z,10.50
2022-09-17T07:46:12.997Z,10.40
2022-09-17T07:48:39.813Z,10.50
2022-09-17T07:51:06.742Z,10.60
2022-09-17T07:53:33.501Z,10.70
2022-09-17T07:56:01.300Z,10.80
2022-09-17T07:58:33.850Z,10.90
2022-09-17T08:01:08.902Z,10.90
2022-09-17T08:03:36.454Z,10.80
2022-09-17T08:06:05.947Z,10.70
2022-09-17T08:08:34.053Z,10.70
2022-09-17T08:11:09.169Z,10.70
2022-09-17T08:13:35.985Z,10.70
2022-09-17T08:16:05.638Z,10.70
2022-09-17T08:18:32.565Z,10.80
2022-09-17T08:21:00.539Z,10.90
2022-09-17T08:23:28.659Z,11.20
2022-09-17T08:25:59.519Z,11.40
2022-09-17T08:28:28.226Z,11.40
2022-09-17T08:30:59.990Z,11.60
2022-09-17T08:33:26.767Z,11.60
2022-09-17T08:35:54.788Z,11.60
2022-09-17T08:38:21.746Z,11.50
2022-09-17T08:41:10.407Z,11.60
2022-09-17T08:43:47.874Z,11.80
2022-09-17T08:46:14.740Z,11.90
2022-09-17T08:48:49.388Z,12.10
2022-09-17T08:51:36.669Z,12.30
2022-09-17T08:54:15.960Z,12.50
2022-09-17T08:56:45.410Z,12.80
2022-09-17T08:59:34.784Z,13.00
2022-09-17T09:02:43.273Z,12.90
2022-09-17T09:05:21.157Z,12.60
2022-09-17T09:07:52.758Z,12.40
2022-09-17T09:10:24.820Z,12.20
2022-09-17T09:12:52.834Z,12.20
2022-09-17T09:15:26.723Z,12.30
2022-09-17T09:17:54.356Z,12.70
2022-09-17T09:20:32.552Z,13.10
2022-09-17T09:23:13.541Z,13.60
2022-09-17T09:26:07.250Z,13.60
2022-09-17T09:28:49.118Z,13.40
2022-09-17T09:31:44.624Z,12.90
2022-09-17T09:34:13.702Z,12.60
2022-09-17T09:36:40.384Z,12.30
2022-09-17T09:39:24.438Z,12.10
2022-09-17T09:41:58.917Z,11.90
2022-09-17T09:44:25.867Z,11.90
2022-09-17T09:47:12.422Z,12.00
2022-09-17T09:50:01.051Z,12.10
2022-09-17T09:52:43.871Z,12.20
2022-09-17T09:55:35.088Z,12.20
2022-09-17T09:58:32.002Z,12.00
2022-09-17T10:00:58.658Z,11.90
2022-09-17T10:03:33.586Z,11.70
2022-09-17T10:06:03.900Z,11.70
2022-09-17T10:08:33.212Z,11.70
2022-09-17T10:11:04.440Z,11.80
2022-09-17T10:13:36.127Z,11.90
2022-09-17T10:16:24.408Z,11.80
2022-09-17T10:19:08.449Z,11.90
2022-09-17T10:21:42.371Z,11.90
2022-09-17T10:24:25.590Z,11.90
2022-09-17T10:27:00.440Z,11.90
2022-09-17T10:29:27.569Z,11.90
2022-09-17T10:31:56.981Z,11.80
2022-09-17T10:34:26.878Z,11.70
2022-09-17T10:36:56.145Z,11.60
2022-09-17T10:39:34.991Z,11.60
2022-09-17T10:42:12.564Z,11.60
2022-09-17T10:44:57.187Z,11.70
2022-09-17T10:47:36.459Z,11.80
2022-09-17T10:50:08.305Z,11.90
2022-09-17T10:52:42.137Z,12.10
2022-09-17T10:55:44.508Z,12.60
2022-09-17T10:58:27.563Z,13.30
2022-09-17T11:01:16.932Z,13.80
2022-09-17T11:03:43.556Z,14.10
2022-09-17T11:06:31.072Z,14.50
2022-09-17T11:09:18.839Z,14.40
2022-09-17T11:12:18.916Z,13.80
2022-09-17T11:14:49.753Z,13.70
2022-09-17T11:17:53.167Z,13.80
2022-09-17T11:20:47.114Z,13.80
2022-09-17T11:23:55.282Z,13.90
2022-09-17T11:26:31.412Z,13.70
2022-09-17T11:29:22.161Z,13.30
2022-09-17T11:32:26.645Z,12.80
2022-09-17T11:34:56.159Z,12.00
2022-09-17T11:37:33.023Z,11.60
2022-09-17T11:40:22.273Z,11.50
2022-09-17T11:42:56.593Z,11.50
2022-09-17T11:45:32.369Z,12.10
2022-09-17T11:48:24.126Z,13.10
2022-09-17T11:51:01.616Z,14.10
2022-09-17T11:53:46.520Z,15.10
2022-09-17T11:56:29.664Z,15.70
2022-09-17T11:59:26.454Z,16.50
2022-09-17T12:01:58.582Z,16.50
2022-09-17T12:04:47.580Z,16.30
2022-09-17T12:07:32.321Z,16.50
2022-09-17T12:10:06.001Z,16.90
2022-09-17T12:12:50.004Z,16.80
2022-09-17T12:15:26.740Z,16.80
2022-09-17T12:18:34.578Z,16.90
2022-09-17T12:21:05.072Z,16.90
2022-09-17T12:23:44.280Z,16.30
2022-09-17T12:26:16.730Z,15.80
2022-09-17T12:28:52.235Z,15.00
2022-09-17T12:31:31.140Z,14.80
2022-09-17T12:34:28.301Z,14.60
2022-09-17T12:37:42.761Z,14.70
2022-09-17T12:40:21.689Z,14.50
2022-09-17T12:43:21.188Z,14.20
2022-09-17T12:46:16.043Z,14.20
2022-09-17T12:49:13.895Z,14.20
2022-09-17T12:52:00.159Z,13.90
2022-09-17T12:54:35.734Z,13.80
2022-09-17T12:57:35.964Z,13.80
2022-09-17T13:00:11.137Z,14.10
2022-09-17T13:02:52.783Z,14.30
2022-09-17T13:05:50.641Z,14.20
2022-09-17T13:08:57.950Z,14.10
2022-09-17T13:11:34.112Z,13.90
2022-09-17T13:14:23.559Z,13.90
2022-09-17T13:17:06.788Z,13.90
2022-09-17T13:19:43.990Z,13.80
2022-09-17T13:22:18.387Z,13.80
2022-09-17T13:24:49.422Z,14.10
2022-09-17T13:27:27.872Z,14.10
2022-09-17T13:29:54.500Z,14.20
2022-09-17T13:32:51.241Z,14.20
2022-09-17T13:35:17.877Z,14.20
2022-09-17T13:37:55.077Z,14.10
2022-09-17T13:40:35.249Z,14.10
2022-09-17T13:43:06.298Z,14.10
2022-09-17T13:45:34.637Z,14.10
2022-09-17T13:48:08.132Z,14.20
2022-09-17T13:50:38.764Z,14.30
2022-09-17T13:53:27.243Z,14.40
2022-09-17T13:56:01.038Z,14.30
2022-09-17T13:58:35.643Z,14.10
2022-09-17T14:01:06.488Z,13.70
2022-09-17T14:03:44.183Z,13.40
2022-09-17T14:06:14.866Z,13.20
2022-09-17T14:08:44.480Z,13.30
2022-09-17T14:11:23.535Z,13.30
2022-09-17T14:14:03.326Z,13.40
2022-09-17T14:16:40.510Z,13.50
2022-09-17T14:19:16.570Z,13.50
2022-09-17T14:22:03.822Z,13.20
2022-09-17T14:24:48.923Z,12.50
2022-09-17T14:27:21.389Z,12.00
2022-09-17T14:30:07.105Z,11.60
2022-09-17T14:32:42.168Z,11.40
2022-09-17T14:35:45.033Z,11.30
2022-09-17T14:38:39.750Z,11.20
2022-09-17T14:41:07.791Z,11.30
2022-09-17T14:43:52.566Z,11.40
2022-09-17T14:46:21.755Z,11.50
2022-09-17T14:48:48.511Z,11.50
2022-09-17T14:51:18.433Z,11.60
2022-09-17T14:53:46.257Z,11.50
2022-09-17T14:56:23.123Z,11.50
2022-09-17T14:58:53.313Z,11.50
2022-09-17T15:01:24.143Z,11.50
2022-09-17T15:04:07.596Z,11.50
2022-09-17T15:06:34.301Z,11.50
2022-09-17T15:09:01.544Z,11.50
2022-09-17T15:11:30.116Z,11.60
2022-09-17T15:13:56.820Z,11.50
2022-09-17T15:16:30.482Z,11.60
2022-09-17T15:19:02.493Z,11.50
2022-09-17T15:21:40.773Z,11.50
2022-09-17T15:24:50.240Z,11.50
2022-09-17T15:27:52.561Z,11.40
2022-09-17T15:30:21.509Z,11.50
2022-09-17T15:32:56.846Z,11.50
2022-09-17T15:35:34.004Z,11.60
2022-09-17T15:38:22.201Z,11.60
2022-09-17T15:40:49.908Z,11.50
2022-09-17T15:43:25.111Z,11.50
2022-09-17T15:45:51.727Z,11.40
2022-09-17T15:48:37.143Z,11.10
2022-09-17T15:51:13.607Z,10.90
2022-09-17T15:53:52.482Z,10.60
2022-09-17T15:56:25.756Z,10.40
2022-09-17T15:59:04.965Z,10.30
2022-09-17T16:01:51.814Z,10.30
2022-09-17T16:04:21.700Z,10.30
2022-09-17T16:07:08.595Z,10.40
2022-09-17T16:09:47.063Z,10.40
2022-09-17T16:12:19.994Z,10.40
2022-09-17T16:14:51.969Z,10.40
2022-09-17T16:17:23.654Z,10.40
2022-09-17T16:19:50.455Z,10.40
2022-09-17T16:22:17.052Z,10.30
2022-09-17T16:24:43.801Z,10.30
2022-09-17T16:27:18.418Z,10.30
2022-09-17T16:29:45.397Z,10.30
2022-09-17T16:32:11.986Z,10.30
2022-09-17T16:34:38.664Z,10.20
2022-09-17T16:37:05.541Z,10.20
2022-09-17T16:39:32.148Z,10.20
2022-09-17T16:41:58.810Z,10.20
2022-09-17T16:44:25.495Z,10.20
2022-09-17T16:46:52.366Z,10.20
2022-09-17T16:49:19.042Z,10.10
2022-09-17T16:51:45.802Z,10.20
2022-09-17T16:54:12.407Z,10.20
2022-09-17T16:56:39.062Z,10.20
2022-09-17T16:59:05.945Z,10.20
2022-09-17T17:01:32.575Z,10.10
2022-09-17T17:04:01.009Z,10.00
2022-09-17T17:06:27.973Z,9.90
2022-09-17T17:08:54.617Z,9.90
2022-09-17T17:11:21.324Z,9.80
2022-09-17T17:13:48.229Z,9.80
2022-09-17T17:16:15.513Z,9.80
2022-09-17T17:18:44.090Z,9.60
2022-09-17T17:21:13.834Z,9.60
2022-09-17T17:23:43.374Z,9.40
2022-09-17T17:26:10.079Z,9.40
2022-09-17T17:28:36.763Z,9.20
2022-09-17T17:31:04.569Z,9.20
2022-09-17T17:33:31.538Z,9.10
2022-09-17T17:36:07.899Z,9.10
2022-09-17T17:38:35.551Z,9.10
2022-09-17T17:41:10.173Z,9.10
2022-09-17T17:43:37.304Z,9.00
2022-09-17T17:46:11.618Z,9.00
2022-09-17T17:48:38.575Z,9.00
2022-09-17T17:51:07.857Z,8.90
2022-09-17T17:53:35.061Z,8.80
2022-09-17T17:56:05.792Z,8.90
2022-09-17T17:58:32.933Z,8.80
2022-09-17T18:00:59.874Z,8.80
2022-09-17T18:03:26.579Z,8.70
2022-09-17T18:05:56.426Z,8.80
2022-09-17T18:08:23.885Z,8.70
2022-09-17T18:10:55.602Z,8.70
2022-09-17T18:13:23.740Z,8.80
2022-09-17T18:15:55.740Z,8.70
2022-09-17T18:18:24.135Z,8.70
2022-09-17T18:20:53.282Z,8.70
2022-09-17T18:23:21.051Z,8.60
2022-09-17T18:25:58.923Z,8.60
2022-09-17T18:28:27.017Z,8.60
2022-09-17T18:30:54.303Z,8.50
2022-09-17T18:33:25.536Z,8.50
2022-09-17T18:35:57.148Z,8.50
2022-09-17T18:38:24.413Z,8.50
2022-09-17T18:40:51.778Z,8.50
2022-09-17T18:43:18.808Z,8.50
2022-09-17T18:45:55.835Z,8.50
2022-09-17T18:48:23.741Z,8.50
2022-09-17T18:51:01.955Z,8.50
2022-09-17T18:53:30.349Z,8.50
2022-09-17T18:56:02.519Z,8.50
2022-09-17T18:58:29.256Z,8.50
2022-09-17T19:00:56.041Z,8.50
2022-09-17T19:03:22.714Z,8.50
2022-09-17T19:05:49.307Z,8.50
2022-09-17T19:08:20.635Z,8.50
2022-09-17T19:10:51.404Z,8.50
2022-09-17T19:13:18.798Z,8.50
2022-09-17T19:15:45.558Z,8.50
2022-09-17T19:18:13.017Z,8.40
2022-09-17T19:20:39.979Z,8.50
2022-09-17T19:23:07.333Z,8.40
2022-09-17T19:25:37.642Z,8.40
2022-09-17T19:28:05.202Z,8.40
2022-09-17T19:30:31.967Z,8.40
2022-09-17T19:32:59.176Z,8.40
2022-09-17T19:35:26.395Z,8.40
2022-09-17T19:37:56.960Z,8.30
2022-09-17T19:40:23.756Z,8.40
2022-09-17T19:42:54.595Z,8.30
2022-09-17T19:45:22.824Z,8.30
2022-09-17T19:47:51.312Z,8.30
2022-09-17T19:50:18.891Z,8.30
2022-09-17T19:52:45.574Z,8.30
2022-09-17T19:55:13.039Z,8.30
2022-09-17T19:57:40.709Z,8.30
2022-09-17T20:00:10.598Z,8.20
2022-09-17T20:02:38.044Z,8.20
2022-09-17T20:05:05.271Z,8.20
2022-09-17T20:07:31.994Z,8.10
2022-09-17T20:09:59.454Z,8.10
2022-09-17T20:12:26.192Z,8.10
2022-09-17T20:14:52.801Z,8.10
2022-09-17T20:17:19.467Z,8.10
2022-09-17T20:19:46.054Z,8.00
2022-09-17T20:22:12.669Z,8.00
2022-09-17T20:24:39.381Z,8.00
2022-09-17T20:27:05.995Z,8.00
2022-09-17T20:29:32.756Z,8.00
2022-09-17T20:31:59.493Z,8.00
2022-09-17T20:34:26.120Z,8.00
2022-09-17T20:37:06.511Z,8.00
2022-09-17T20:39:38.868Z,7.90
2022-09-17T20:42:05.646Z,8.00
2022-09-17T20:44:32.310Z,8.00
2022-09-17T20:46:59.675Z,7.90
2022-09-17T20:49:26.407Z,7.90
2022-09-17T20:51:53.141Z,7.90
2022-09-17T20:54:19.883Z,7.90
2022-09-17T20:56:46.672Z,7.90
2022-09-17T20:59:15.198Z,8.00
2022-09-17T21:01:45.348Z,7.90
2022-09-17T21:04:15.265Z,8.00
2022-09-17T21:06:43.426Z,8.00
2022-09-17T21:09:12.173Z,8.10
2022-09-17T21:11:38.959Z,8.10
2022-09-17T21:14:05.841Z,8.20
2022-09-17T21:16:32.751Z,8.20
2022-09-17T21:19:05.167Z,8.30
2022-09-17T21:21:34.421Z,8.30
2022-09-17T21:24:03.388Z,8.30
2022-09-17T21:26:30.781Z,8.40
2022-09-17T21:28:58.036Z,8.40
2022-09-17T21:31:31.671Z,8.40
2022-09-17T21:34:04.440Z,8.50
2022-09-17T21:36:33.563Z,8.50
2022-09-17T21:39:03.810Z,8.50
2022-09-17T21:41:30.491Z,8.60
2022-09-17T21:43:58.055Z,8.50
2022-09-17T21:46:27.556Z,8.60
2022-09-17T21:48:56.541Z,8.50
2022-09-17T21:51:26.470Z,8.50
2022-09-17T21:53:55.358Z,8.50
2022-09-17T21:56:22.730Z,8.60
2022-09-17T21:59:01.869Z,8.50
2022-09-17T22:01:31.977Z,8.50
2022-09-17T22:04:00.028Z,8.50
2022-09-17T22:06:29.685Z,8.50
2022-09-17T22:08:57.332Z,8.50
2022-09-17T22:11:29.372Z,8.60
2022-09-17T22:14:04.858Z,8.50
2022-09-17T22:16:33.467Z,8.50
2022-09-17T22:19:00.158Z,8.50
2022-09-17T22:21:28.408Z,8.50
2022-09-17T22:23:58.575Z,8.50
2022-09-17T22:26:27.359Z,8.60
2022-09-17T22:28:54.171Z,8.60
2022-09-17T22:31:22.787Z,8.60
2022-09-17T22:33:50.143Z,8.60
2022-09-17T22:36:19.569Z,8.60
2022-09-17T22:38:48.703Z,8.60
2022-09-17T22:41:31.461Z,8.60
2022-09-17T22:44:04.006Z,8.60
2022-09-17T22:46:33.682Z,8.70
2022-09-17T22:49:00.391Z,8.70
2022-09-17T22:51:28.800Z,8.80
2022-09-17T22:53:56.290Z,8.80
2022-09-17T22:56:24.361Z,8.80
2022-09-17T22:58:51.467Z,8.80
2022-09-17T23:01:23.749Z,8.80
2022-09-17T23:03:53.575Z,8.80
2022-09-17T23:06:21.853Z,8.80
2022-09-17T23:08:48.606Z,8.90
2022-09-17T23:11:32.874Z,8.90
2022-09-17T23:14:03.010Z,8.90
2022-09-17T23:16:37.921Z,8.90
2022-09-17T23:19:05.271Z,9.00
2022-09-17T23:21:32.254Z,9.00
2022-09-17T23:23:59.156Z,9.00
2022-09-17T23:26:27.168Z,9.10
2022-09-17T23:28:54.181Z,9.00
2022-09-17T23:31:23.741Z,9.00
2022-09-17T23:33:51.432Z,9.10
2022-09-17T23:36:27.221Z,9.10
2022-09-17T23:38:55.070Z,9.10
2022-09-17T23:41:27.983Z,9.10
2022-09-17T23:43:57.401Z,9.20
2022-09-17T23:46:26.088Z,9.20
2022-09-17T23:48:53.635Z,9.10
2022-09-17T23:51:22.134Z,9.20
2022-09-17T23:53:49.259Z,9.10
2022-09-17T23:56:19.073Z,9.10
2022-09-17T23:58:45.643Z,9.10
